Terminal Aerodrome Forecast
Issued by NWS Bismarck, ND

Home | Current Version | Previous Version | Graphics & Text | Print | Product List | Glossary On
Versions: 1 2 3 4 5 6 7 8 9 10 11 12 13 14 15 16 17 18
387
FTUS43 KBIS 241738
TAFBIS
TAF
KBIS 241738Z 2418/2518 28020G30KT P6SM OVC045
     FM250200 30011G21KT P6SM BKN060
     FM251000 29007KT P6SM BKN045
     FM251300 31008KT P6SM SCT040=

USA.gov is the U.S. government's official web portal to all federal, state and local government web resources and services.